sensor_id;sensor_type;location;lat;lon;timestamp;P1;durP1;ratioP1;P2;durP2;ratioP2
74808;SDS011;63338;39.544;2.596;2022-11-11T00:01:44;5.72;;;0.80;;
74808;SDS011;63338;39.544;2.596;2022-11-11T00:04:10;5.85;;;0.90;;
74808;SDS011;63338;39.544;2.596;2022-11-11T00:06:43;8.25;;;1.20;;
74808;SDS011;63338;39.544;2.596;2022-11-11T00:09:18;8.73;;;1.20;;
74808;SDS011;63338;39.544;2.596;2022-11-11T00:11:44;3.67;;;0.47;;
74808;SDS011;63338;39.544;2.596;2022-11-11T00:14:14;4.40;;;0.90;;
74808;SDS011;63338;39.544;2.596;2022-11-11T00:16:43;5.55;;;0.77;;
74808;SDS011;63338;39.544;2.596;2022-11-11T00:19:27;5.88;;;0.80;;
74808;SDS011;63338;39.544;2.596;2022-11-11T00:22:20;8.10;;;0.65;;
74808;SDS011;63338;39.544;2.596;2022-11-11T00:25:05;3.38;;;0.55;;
74808;SDS011;63338;39.544;2.596;2022-11-11T00:27:32;6.10;;;0.80;;
74808;SDS011;63338;39.544;2.596;2022-11-11T00:30:01;4.90;;;0.80;;
74808;SDS011;63338;39.544;2.596;2022-11-11T00:32:31;5.93;;;0.73;;
74808;SDS011;63338;39.544;2.596;2022-11-11T00:34:58;5.65;;;0.60;;
74808;SDS011;63338;39.544;2.596;2022-11-11T00:37:46;8.43;;;1.13;;
74808;SDS011;63338;39.544;2.596;2022-11-11T00:42:40;8.52;;;0.98;;
74808;SDS011;63338;39.544;2.596;2022-11-11T00:45:08;6.25;;;1.30;;
74808;SDS011;63338;39.544;2.596;2022-11-11T00:47:35;8.27;;;1.10;;
74808;SDS011;63338;39.544;2.596;2022-11-11T00:50:25;10.75;;;1.20;;
74808;SDS011;63338;39.544;2.596;2022-11-11T00:53:12;12.68;;;1.23;;
74808;SDS011;63338;39.544;2.596;2022-11-11T00:55:46;11.20;;;1.02;;
74808;SDS011;63338;39.544;2.596;2022-11-11T00:58:12;9.82;;;1.05;;
74808;SDS011;63338;39.544;2.596;2022-11-11T01:00:42;12.77;;;2.25;;
74808;SDS011;63338;39.544;2.596;2022-11-11T01:03:08;13.82;;;1.48;;
74808;SDS011;63338;39.544;2.596;2022-11-11T01:05:38;8.63;;;1.13;;
74808;SDS011;63338;39.544;2.596;2022-11-11T01:08:04;13.93;;;1.33;;
74808;SDS011;63338;39.544;2.596;2022-11-11T01:10:30;10.70;;;1.40;;
74808;SDS011;63338;39.544;2.596;2022-11-11T01:13:03;9.27;;;1.33;;
74808;SDS011;63338;39.544;2.596;2022-11-11T01:15:37;12.15;;;1.40;;
74808;SDS011;63338;39.544;2.596;2022-11-11T01:18:08;9.73;;;1.25;;
74808;SDS011;63338;39.544;2.596;2022-11-11T01:20:36;15.43;;;1.55;;
74808;SDS011;63338;39.544;2.596;2022-11-11T01:23:03;9.52;;;1.48;;
74808;SDS011;63338;39.544;2.596;2022-11-11T01:25:33;12.15;;;1.50;;
74808;SDS011;63338;39.544;2.596;2022-11-11T01:28:01;6.50;;;1.00;;
74808;SDS011;63338;39.544;2.596;2022-11-11T01:30:28;6.88;;;0.95;;
74808;SDS011;63338;39.544;2.596;2022-11-11T01:32:55;10.10;;;1.52;;
74808;SDS011;63338;39.544;2.596;2022-11-11T01:35:21;11.30;;;1.45;;
74808;SDS011;63338;39.544;2.596;2022-11-11T01:37:47;9.60;;;1.92;;
74808;SDS011;63338;39.544;2.596;2022-11-11T01:40:13;12.60;;;1.52;;
74808;SDS011;63338;39.544;2.596;2022-11-11T01:48:29;13.68;;;1.42;;
74808;SDS011;63338;39.544;2.596;2022-11-11T01:51:28;16.48;;;2.42;;
74808;SDS011;63338;39.544;2.596;2022-11-11T01:56:33;16.77;;;1.92;;
74808;SDS011;63338;39.544;2.596;2022-11-11T01:59:06;8.48;;;1.30;;
74808;SDS011;63338;39.544;2.596;2022-11-11T02:01:38;8.60;;;0.98;;
74808;SDS011;63338;39.544;2.596;2022-11-11T02:04:06;8.32;;;1.17;;
74808;SDS011;63338;39.544;2.596;2022-11-11T02:06:56;7.65;;;0.98;;
74808;SDS011;63338;39.544;2.596;2022-11-11T02:09:26;8.20;;;1.10;;
74808;SDS011;63338;39.544;2.596;2022-11-11T02:11:54;8.32;;;1.67;;
74808;SDS011;63338;39.544;2.596;2022-11-11T02:14:43;12.05;;;1.75;;
74808;SDS011;63338;39.544;2.596;2022-11-11T02:17:31;12.30;;;1.55;;
74808;SDS011;63338;39.544;2.596;2022-11-11T02:19:58;10.73;;;1.30;;
74808;SDS011;63338;39.544;2.596;2022-11-11T02:22:29;10.68;;;1.10;;
74808;SDS011;63338;39.544;2.596;2022-11-11T02:25:17;14.82;;;2.08;;
74808;SDS011;63338;39.544;2.596;2022-11-11T02:27:46;13.27;;;1.40;;
74808;SDS011;63338;39.544;2.596;2022-11-11T02:30:16;10.32;;;1.20;;
74808;SDS011;63338;39.544;2.596;2022-11-11T02:32:43;9.65;;;1.17;;
74808;SDS011;63338;39.544;2.596;2022-11-11T02:35:16;10.32;;;1.30;;
74808;SDS011;63338;39.544;2.596;2022-11-11T02:37:45;7.35;;;1.00;;
74808;SDS011;63338;39.544;2.596;2022-11-11T02:40:16;9.38;;;1.50;;
74808;SDS011;63338;39.544;2.596;2022-11-11T02:42:50;10.75;;;1.30;;
74808;SDS011;63338;39.544;2.596;2022-11-11T02:45:18;7.65;;;0.82;;
74808;SDS011;63338;39.544;2.596;2022-11-11T02:47:44;8.82;;;1.05;;
74808;SDS011;63338;39.544;2.596;2022-11-11T02:50:10;5.72;;;1.23;;
74808;SDS011;63338;39.544;2.596;2022-11-11T02:52:40;5.57;;;0.95;;
74808;SDS011;63338;39.544;2.596;2022-11-11T02:55:08;8.30;;;1.00;;
74808;SDS011;63338;39.544;2.596;2022-11-11T02:57:35;6.40;;;0.93;;
74808;SDS011;63338;39.544;2.596;2022-11-11T03:00:08;8.15;;;1.10;;
74808;SDS011;63338;39.544;2.596;2022-11-11T03:02:38;7.75;;;1.00;;
74808;SDS011;63338;39.544;2.596;2022-11-11T03:07:32;10.27;;;1.00;;
74808;SDS011;63338;39.544;2.596;2022-11-11T03:09:59;11.02;;;1.02;;
74808;SDS011;63338;39.544;2.596;2022-11-11T03:12:25;10.95;;;1.38;;
74808;SDS011;63338;39.544;2.596;2022-11-11T03:14:53;6.43;;;0.98;;
74808;SDS011;63338;39.544;2.596;2022-11-11T03:17:19;7.45;;;0.75;;
74808;SDS011;63338;39.544;2.596;2022-11-11T03:20:07;9.05;;;1.17;;
74808;SDS011;63338;39.544;2.596;2022-11-11T03:22:59;7.22;;;1.02;;
74808;SDS011;63338;39.544;2.596;2022-11-11T03:25:29;7.10;;;1.40;;
74808;SDS011;63338;39.544;2.596;2022-11-11T03:28:09;7.32;;;1.10;;
74808;SDS011;63338;39.544;2.596;2022-11-11T03:30:39;9.68;;;1.38;;
74808;SDS011;63338;39.544;2.596;2022-11-11T03:33:07;11.80;;;1.50;;
74808;SDS011;63338;39.544;2.596;2022-11-11T03:35:34;8.73;;;1.08;;
74808;SDS011;63338;39.544;2.596;2022-11-11T03:38:03;8.38;;;1.23;;
74808;SDS011;63338;39.544;2.596;2022-11-11T03:40:43;11.77;;;1.70;;
74808;SDS011;63338;39.544;2.596;2022-11-11T03:43:14;12.82;;;1.48;;
74808;SDS011;63338;39.544;2.596;2022-11-11T03:45:42;8.20;;;1.15;;
74808;SDS011;63338;39.544;2.596;2022-11-11T03:48:12;14.75;;;1.40;;
74808;SDS011;63338;39.544;2.596;2022-11-11T03:50:41;9.02;;;1.13;;
74808;SDS011;63338;39.544;2.596;2022-11-11T03:53:10;10.00;;;1.38;;
74808;SDS011;63338;39.544;2.596;2022-11-11T03:55:43;8.02;;;1.58;;
74808;SDS011;63338;39.544;2.596;2022-11-11T03:58:17;9.45;;;1.50;;
74808;SDS011;63338;39.544;2.596;2022-11-11T04:00:45;10.35;;;1.27;;
74808;SDS011;63338;39.544;2.596;2022-11-11T04:03:17;9.25;;;1.58;;
74808;SDS011;63338;39.544;2.596;2022-11-11T04:06:02;8.27;;;1.33;;
74808;SDS011;63338;39.544;2.596;2022-11-11T04:08:48;8.48;;;1.30;;
74808;SDS011;63338;39.544;2.596;2022-11-11T04:11:37;8.52;;;1.23;;
74808;SDS011;63338;39.544;2.596;2022-11-11T04:14:10;8.30;;;1.55;;
74808;SDS011;63338;39.544;2.596;2022-11-11T04:16:59;13.73;;;1.90;;
74808;SDS011;63338;39.544;2.596;2022-11-11T04:19:25;10.95;;;1.55;;
74808;SDS011;63338;39.544;2.596;2022-11-11T04:22:19;9.85;;;1.85;;
74808;SDS011;63338;39.544;2.596;2022-11-11T04:24:45;12.77;;;1.85;;
74808;SDS011;63338;39.544;2.596;2022-11-11T04:27:29;12.02;;;2.25;;
74808;SDS011;63338;39.544;2.596;2022-11-11T04:29:59;10.77;;;1.52;;
74808;SDS011;63338;39.544;2.596;2022-11-11T04:32:28;13.80;;;1.58;;
74808;SDS011;63338;39.544;2.596;2022-11-11T04:35:02;14.90;;;1.92;;
74808;SDS011;63338;39.544;2.596;2022-11-11T04:37:36;9.25;;;1.33;;
74808;SDS011;63338;39.544;2.596;2022-11-11T04:40:11;13.80;;;1.50;;
74808;SDS011;63338;39.544;2.596;2022-11-11T04:42:59;6.22;;;1.30;;
74808;SDS011;63338;39.544;2.596;2022-11-11T04:45:25;10.52;;;1.52;;
74808;SDS011;63338;39.544;2.596;2022-11-11T04:48:00;12.88;;;1.38;;
74808;SDS011;63338;39.544;2.596;2022-11-11T04:50:37;11.93;;;1.45;;
74808;SDS011;63338;39.544;2.596;2022-11-11T04:53:09;17.77;;;1.52;;
74808;SDS011;63338;39.544;2.596;2022-11-11T04:55:38;11.40;;;1.65;;
74808;SDS011;63338;39.544;2.596;2022-11-11T04:58:24;13.23;;;2.13;;
74808;SDS011;63338;39.544;2.596;2022-11-11T05:00:54;12.80;;;1.58;;
74808;SDS011;63338;39.544;2.596;2022-11-11T05:03:23;10.23;;;1.35;;
74808;SDS011;63338;39.544;2.596;2022-11-11T05:05:50;11.57;;;1.48;;
74808;SDS011;63338;39.544;2.596;2022-11-11T05:08:40;8.82;;;1.15;;
74808;SDS011;63338;39.544;2.596;2022-11-11T05:11:31;11.75;;;1.40;;
74808;SDS011;63338;39.544;2.596;2022-11-11T05:14:01;8.15;;;1.38;;
74808;SDS011;63338;39.544;2.596;2022-11-11T05:16:56;9.88;;;1.50;;
74808;SDS011;63338;39.544;2.596;2022-11-11T05:19:42;12.23;;;1.77;;
74808;SDS011;63338;39.544;2.596;2022-11-11T05:24:53;7.97;;;1.55;;
74808;SDS011;63338;39.544;2.596;2022-11-11T05:27:39;8.25;;;1.38;;
74808;SDS011;63338;39.544;2.596;2022-11-11T05:30:12;6.22;;;1.38;;
74808;SDS011;63338;39.544;2.596;2022-11-11T05:32:39;9.40;;;1.52;;
74808;SDS011;63338;39.544;2.596;2022-11-11T05:35:07;8.73;;;1.58;;
74808;SDS011;63338;39.544;2.596;2022-11-11T05:37:34;10.13;;;1.52;;
74808;SDS011;63338;39.544;2.596;2022-11-11T05:40:02;10.57;;;1.70;;
74808;SDS011;63338;39.544;2.596;2022-11-11T05:42:28;9.23;;;1.35;;
74808;SDS011;63338;39.544;2.596;2022-11-11T05:44:55;7.80;;;1.40;;
74808;SDS011;63338;39.544;2.596;2022-11-11T05:47:21;9.75;;;1.80;;
74808;SDS011;63338;39.544;2.596;2022-11-11T05:49:47;14.77;;;2.40;;
74808;SDS011;63338;39.544;2.596;2022-11-11T05:52:14;10.98;;;1.58;;
74808;SDS011;63338;39.544;2.596;2022-11-11T05:54:41;7.93;;;1.27;;
74808;SDS011;63338;39.544;2.596;2022-11-11T05:57:13;15.30;;;1.55;;
74808;SDS011;63338;39.544;2.596;2022-11-11T05:59:39;6.43;;;1.92;;
74808;SDS011;63338;39.544;2.596;2022-11-11T06:02:09;8.45;;;1.42;;
74808;SDS011;63338;39.544;2.596;2022-11-11T06:04:35;7.75;;;1.63;;
74808;SDS011;63338;39.544;2.596;2022-11-11T06:07:01;8.27;;;1.40;;
74808;SDS011;63338;39.544;2.596;2022-11-11T06:09:28;10.02;;;1.67;;
74808;SDS011;63338;39.544;2.596;2022-11-11T06:11:55;6.82;;;1.52;;
74808;SDS011;63338;39.544;2.596;2022-11-11T06:14:26;12.95;;;2.35;;
74808;SDS011;63338;39.544;2.596;2022-11-11T06:16:59;9.18;;;1.67;;
74808;SDS011;63338;39.544;2.596;2022-11-11T06:19:28;7.55;;;1.33;;
74808;SDS011;63338;39.544;2.596;2022-11-11T06:21:54;9.00;;;1.75;;
74808;SDS011;63338;39.544;2.596;2022-11-11T06:24:25;12.38;;;1.95;;
74808;SDS011;63338;39.544;2.596;2022-11-11T06:26:53;9.77;;;2.20;;
74808;SDS011;63338;39.544;2.596;2022-11-11T06:29:24;9.10;;;1.70;;
74808;SDS011;63338;39.544;2.596;2022-11-11T06:31:52;13.57;;;2.38;;
74808;SDS011;63338;39.544;2.596;2022-11-11T06:34:18;14.18;;;1.45;;
74808;SDS011;63338;39.544;2.596;2022-11-11T06:36:44;9.18;;;1.65;;
74808;SDS011;63338;39.544;2.596;2022-11-11T06:39:13;12.10;;;1.85;;
74808;SDS011;63338;39.544;2.596;2022-11-11T06:41:40;9.45;;;1.48;;
74808;SDS011;63338;39.544;2.596;2022-11-11T06:44:06;9.90;;;1.75;;
74808;SDS011;63338;39.544;2.596;2022-11-11T06:46:35;9.75;;;1.38;;
74808;SDS011;63338;39.544;2.596;2022-11-11T06:49:04;10.57;;;1.70;;
74808;SDS011;63338;39.544;2.596;2022-11-11T06:51:34;12.93;;;1.67;;
74808;SDS011;63338;39.544;2.596;2022-11-11T06:54:04;10.10;;;1.90;;
74808;SDS011;63338;39.544;2.596;2022-11-11T06:56:32;12.45;;;1.95;;
74808;SDS011;63338;39.544;2.596;2022-11-11T06:59:01;8.90;;;1.33;;
74808;SDS011;63338;39.544;2.596;2022-11-11T07:01:31;9.10;;;1.13;;
74808;SDS011;63338;39.544;2.596;2022-11-11T07:04:01;12.35;;;1.50;;
74808;SDS011;63338;39.544;2.596;2022-11-11T07:06:30;8.27;;;1.38;;
74808;SDS011;63338;39.544;2.596;2022-11-11T07:08:59;12.82;;;1.52;;
74808;SDS011;63338;39.544;2.596;2022-11-11T07:11:25;8.25;;;1.40;;
74808;SDS011;63338;39.544;2.596;2022-11-11T07:13:56;10.88;;;1.55;;
74808;SDS011;63338;39.544;2.596;2022-11-11T07:16:23;8.82;;;1.35;;
74808;SDS011;63338;39.544;2.596;2022-11-11T07:18:49;11.38;;;1.60;;
74808;SDS011;63338;39.544;2.596;2022-11-11T07:21:15;10.07;;;1.27;;
74808;SDS011;63338;39.544;2.596;2022-11-11T07:23:47;16.25;;;2.08;;
74808;SDS011;63338;39.544;2.596;2022-11-11T07:26:18;13.10;;;1.73;;
74808;SDS011;63338;39.544;2.596;2022-11-11T07:28:46;12.25;;;1.42;;
74808;SDS011;63338;39.544;2.596;2022-11-11T07:31:21;9.27;;;1.42;;
74808;SDS011;63338;39.544;2.596;2022-11-11T07:33:50;11.65;;;1.50;;
74808;SDS011;63338;39.544;2.596;2022-11-11T07:36:34;6.95;;;1.40;;
74808;SDS011;63338;39.544;2.596;2022-11-11T07:39:00;8.65;;;1.40;;
74808;SDS011;63338;39.544;2.596;2022-11-11T07:41:36;7.45;;;1.42;;
74808;SDS011;63338;39.544;2.596;2022-11-11T07:44:26;7.15;;;1.30;;
74808;SDS011;63338;39.544;2.596;2022-11-11T07:47:21;11.25;;;1.73;;
74808;SDS011;63338;39.544;2.596;2022-11-11T07:50:06;10.32;;;2.00;;
74808;SDS011;63338;39.544;2.596;2022-11-11T07:53:22;12.07;;;2.00;;
74808;SDS011;63338;39.544;2.596;2022-11-11T07:55:55;5.93;;;1.85;;
74808;SDS011;63338;39.544;2.596;2022-11-11T07:58:32;13.50;;;2.25;;
74808;SDS011;63338;39.544;2.596;2022-11-11T08:01:07;14.55;;;2.50;;
74808;SDS011;63338;39.544;2.596;2022-11-11T08:03:38;12.63;;;1.80;;
74808;SDS011;63338;39.544;2.596;2022-11-11T08:06:14;12.20;;;1.77;;
74808;SDS011;63338;39.544;2.596;2022-11-11T08:09:01;12.48;;;1.98;;
74808;SDS011;63338;39.544;2.596;2022-11-11T08:11:28;7.88;;;1.60;;
74808;SDS011;63338;39.544;2.596;2022-11-11T08:14:12;8.55;;;1.80;;
74808;SDS011;63338;39.544;2.596;2022-11-11T08:16:41;8.32;;;1.67;;
74808;SDS011;63338;39.544;2.596;2022-11-11T08:19:10;11.20;;;1.52;;
74808;SDS011;63338;39.544;2.596;2022-11-11T08:21:39;8.18;;;1.23;;
74808;SDS011;63338;39.544;2.596;2022-11-11T08:24:14;10.35;;;1.30;;
74808;SDS011;63338;39.544;2.596;2022-11-11T08:34:03;14.85;;;1.60;;
74808;SDS011;63338;39.544;2.596;2022-11-11T08:36:33;7.40;;;1.27;;
74808;SDS011;63338;39.544;2.596;2022-11-11T08:55:12;9.38;;;3.85;;
74808;SDS011;63338;39.544;2.596;2022-11-11T08:57:39;9.07;;;1.90;;
74808;SDS011;63338;39.544;2.596;2022-11-11T09:00:08;10.88;;;2.00;;
74808;SDS011;63338;39.544;2.596;2022-11-11T09:03:17;8.43;;;1.40;;
74808;SDS011;63338;39.544;2.596;2022-11-11T09:06:35;8.95;;;1.80;;
74808;SDS011;63338;39.544;2.596;2022-11-11T09:09:09;9.25;;;1.52;;
74808;SDS011;63338;39.544;2.596;2022-11-11T09:11:51;13.07;;;1.30;;
74808;SDS011;63338;39.544;2.596;2022-11-11T09:14:30;12.32;;;1.63;;
74808;SDS011;63338;39.544;2.596;2022-11-11T09:17:01;8.18;;;1.42;;
74808;SDS011;63338;39.544;2.596;2022-11-11T09:19:40;9.93;;;1.95;;
74808;SDS011;63338;39.544;2.596;2022-11-11T09:25:18;7.55;;;1.42;;
74808;SDS011;63338;39.544;2.596;2022-11-11T09:31:46;9.73;;;1.42;;
74808;SDS011;63338;39.544;2.596;2022-11-11T09:35:01;7.88;;;1.55;;
74808;SDS011;63338;39.544;2.596;2022-11-11T09:37:58;8.25;;;1.30;;
74808;SDS011;63338;39.544;2.596;2022-11-11T09:40:54;7.40;;;1.33;;
74808;SDS011;63338;39.544;2.596;2022-11-11T09:43:55;9.75;;;1.73;;
74808;SDS011;63338;39.544;2.596;2022-11-11T09:49:37;8.70;;;2.20;;
74808;SDS011;63338;39.544;2.596;2022-11-11T10:00:37;8.75;;;2.00;;
74808;SDS011;63338;39.544;2.596;2022-11-11T10:03:16;10.35;;;2.05;;
74808;SDS011;63338;39.544;2.596;2022-11-11T10:05:51;9.85;;;1.80;;
74808;SDS011;63338;39.544;2.596;2022-11-11T10:08:53;8.80;;;1.60;;
74808;SDS011;63338;39.544;2.596;2022-11-11T10:15:40;13.90;;;2.05;;
74808;SDS011;63338;39.544;2.596;2022-11-11T10:22:30;9.30;;;1.75;;
74808;SDS011;63338;39.544;2.596;2022-11-11T10:27:58;10.20;;;1.70;;
74808;SDS011;63338;39.544;2.596;2022-11-11T10:30:36;8.35;;;1.77;;
74808;SDS011;63338;39.544;2.596;2022-11-11T10:36:57;10.95;;;2.08;;
74808;SDS011;63338;39.544;2.596;2022-11-11T10:42:37;7.78;;;1.60;;
74808;SDS011;63338;39.544;2.596;2022-11-11T10:45:10;10.32;;;1.85;;
74808;SDS011;63338;39.544;2.596;2022-11-11T10:47:57;7.20;;;1.55;;
74808;SDS011;63338;39.544;2.596;2022-11-11T10:50:48;10.30;;;2.15;;
74808;SDS011;63338;39.544;2.596;2022-11-11T10:58:57;13.80;;;1.73;;
74808;SDS011;63338;39.544;2.596;2022-11-11T11:01:47;9.18;;;2.05;;
74808;SDS011;63338;39.544;2.596;2022-11-11T11:10:51;17.33;;;2.63;;
74808;SDS011;63338;39.544;2.596;2022-11-11T11:16:20;10.40;;;1.90;;
74808;SDS011;63338;39.544;2.596;2022-11-11T11:25:43;11.00;;;2.00;;
74808;SDS011;63338;39.544;2.596;2022-11-11T11:28:59;11.13;;;1.80;;
74808;SDS011;63338;39.544;2.596;2022-11-11T11:31:35;12.27;;;1.73;;
74808;SDS011;63338;39.544;2.596;2022-11-11T11:34:09;10.30;;;1.73;;
74808;SDS011;63338;39.544;2.596;2022-11-11T11:37:00;13.25;;;1.70;;
74808;SDS011;63338;39.544;2.596;2022-11-11T11:39:38;9.65;;;1.73;;
74808;SDS011;63338;39.544;2.596;2022-11-11T11:42:32;9.73;;;1.90;;
74808;SDS011;63338;39.544;2.596;2022-11-11T12:40:16;15.82;;;3.30;;
74808;SDS011;63338;39.544;2.596;2022-11-11T12:50:06;14.15;;;2.92;;
74808;SDS011;63338;39.544;2.596;2022-11-11T12:56:23;16.42;;;3.28;;
74808;SDS011;63338;39.544;2.596;2022-11-11T13:12:41;20.45;;;2.97;;
74808;SDS011;63338;39.544;2.596;2022-11-11T13:15:23;20.55;;;3.67;;
74808;SDS011;63338;39.544;2.596;2022-11-11T13:17:57;18.98;;;3.17;;
74808;SDS011;63338;39.544;2.596;2022-11-11T13:20:58;17.13;;;3.10;;
74808;SDS011;63338;39.544;2.596;2022-11-11T13:23:35;14.13;;;3.72;;
74808;SDS011;63338;39.544;2.596;2022-11-11T13:26:22;17.00;;;3.25;;
74808;SDS011;63338;39.544;2.596;2022-11-11T13:36:00;17.67;;;3.47;;
74808;SDS011;63338;39.544;2.596;2022-11-11T13:38:32;17.10;;;3.65;;
74808;SDS011;63338;39.544;2.596;2022-11-11T13:41:03;18.73;;;3.45;;
74808;SDS011;63338;39.544;2.596;2022-11-11T13:43:39;17.88;;;4.28;;
74808;SDS011;63338;39.544;2.596;2022-11-11T13:49:42;23.42;;;3.53;;
74808;SDS011;63338;39.544;2.596;2022-11-11T13:52:36;15.68;;;2.88;;
74808;SDS011;63338;39.544;2.596;2022-11-11T13:58:23;20.58;;;3.70;;
74808;SDS011;63338;39.544;2.596;2022-11-11T14:01:05;25.92;;;3.22;;
74808;SDS011;63338;39.544;2.596;2022-11-11T14:06:28;23.23;;;3.30;;
74808;SDS011;63338;39.544;2.596;2022-11-11T14:09:08;27.25;;;3.00;;
74808;SDS011;63338;39.544;2.596;2022-11-11T14:18:07;15.90;;;3.13;;
74808;SDS011;63338;39.544;2.596;2022-11-11T14:34:00;22.63;;;2.97;;
74808;SDS011;63338;39.544;2.596;2022-11-11T14:39:43;18.67;;;3.38;;
74808;SDS011;63338;39.544;2.596;2022-11-11T14:54:27;17.85;;;4.00;;
74808;SDS011;63338;39.544;2.596;2022-11-11T14:57:29;20.63;;;3.58;;
74808;SDS011;63338;39.544;2.596;2022-11-11T15:00:12;19.50;;;3.72;;
74808;SDS011;63338;39.544;2.596;2022-11-11T15:02:49;20.95;;;3.17;;
74808;SDS011;63338;39.544;2.596;2022-11-11T15:46:53;21.52;;;4.63;;
74808;SDS011;63338;39.544;2.596;2022-11-11T15:50:02;17.83;;;3.58;;
74808;SDS011;63338;39.544;2.596;2022-11-11T15:52:57;21.48;;;3.88;;
74808;SDS011;63338;39.544;2.596;2022-11-11T15:56:05;20.95;;;4.78;;
74808;SDS011;63338;39.544;2.596;2022-11-11T15:59:14;21.38;;;4.50;;
74808;SDS011;63338;39.544;2.596;2022-11-11T16:02:43;21.80;;;4.75;;
74808;SDS011;63338;39.544;2.596;2022-11-11T16:05:14;25.13;;;4.50;;
74808;SDS011;63338;39.544;2.596;2022-11-11T16:07:50;28.63;;;5.25;;
74808;SDS011;63338;39.544;2.596;2022-11-11T16:10:42;24.85;;;5.00;;
74808;SDS011;63338;39.544;2.596;2022-11-11T16:13:53;21.60;;;4.55;;
74808;SDS011;63338;39.544;2.596;2022-11-11T16:16:44;30.15;;;5.10;;
74808;SDS011;63338;39.544;2.596;2022-11-11T16:19:24;27.02;;;4.85;;
74808;SDS011;63338;39.544;2.596;2022-11-11T16:23:17;21.48;;;5.82;;
74808;SDS011;63338;39.544;2.596;2022-11-11T16:25:41;24.10;;;5.88;;
74808;SDS011;63338;39.544;2.596;2022-11-11T16:36:09;25.85;;;4.75;;
74808;SDS011;63338;39.544;2.596;2022-11-11T16:39:37;26.95;;;6.88;;
74808;SDS011;63338;39.544;2.596;2022-11-11T16:45:54;22.98;;;6.90;;
74808;SDS011;63338;39.544;2.596;2022-11-11T16:48:56;25.73;;;5.50;;
74808;SDS011;63338;39.544;2.596;2022-11-11T16:55:46;21.42;;;5.60;;
74808;SDS011;63338;39.544;2.596;2022-11-11T16:59:44;25.10;;;7.07;;
74808;SDS011;63338;39.544;2.596;2022-11-11T17:23:27;21.35;;;4.65;;
74808;SDS011;63338;39.544;2.596;2022-11-11T17:26:19;20.58;;;5.05;;
74808;SDS011;63338;39.544;2.596;2022-11-11T17:31:33;24.40;;;5.97;;
74808;SDS011;63338;39.544;2.596;2022-11-11T17:40:13;23.25;;;5.68;;
74808;SDS011;63338;39.544;2.596;2022-11-11T17:43:08;21.27;;;4.88;;
74808;SDS011;63338;39.544;2.596;2022-11-11T17:45:43;22.00;;;4.93;;
74808;SDS011;63338;39.544;2.596;2022-11-11T17:48:16;27.23;;;5.18;;
74808;SDS011;63338;39.544;2.596;2022-11-11T17:50:55;22.25;;;5.28;;
74808;SDS011;63338;39.544;2.596;2022-11-11T18:01:02;22.90;;;5.15;;
74808;SDS011;63338;39.544;2.596;2022-11-11T18:20:46;21.77;;;4.75;;
74808;SDS011;63338;39.544;2.596;2022-11-11T18:23:16;20.33;;;4.80;;
74808;SDS011;63338;39.544;2.596;2022-11-11T18:25:53;17.33;;;5.22;;
74808;SDS011;63338;39.544;2.596;2022-11-11T18:43:53;29.58;;;5.10;;
74808;SDS011;63338;39.544;2.596;2022-11-11T18:46:49;23.60;;;9.10;;
74808;SDS011;63338;39.544;2.596;2022-11-11T18:59:54;23.73;;;5.35;;
74808;SDS011;63338;39.544;2.596;2022-11-11T19:02:54;18.77;;;5.47;;
74808;SDS011;63338;39.544;2.596;2022-11-11T19:13:08;29.73;;;5.80;;
74808;SDS011;63338;39.544;2.596;2022-11-11T19:15:34;20.25;;;5.75;;
74808;SDS011;63338;39.544;2.596;2022-11-11T19:18:07;19.90;;;4.50;;
74808;SDS011;63338;39.544;2.596;2022-11-11T19:20:36;21.80;;;5.00;;
74808;SDS011;63338;39.544;2.596;2022-11-11T19:23:02;24.33;;;4.20;;
74808;SDS011;63338;39.544;2.596;2022-11-11T19:25:31;19.67;;;3.75;;
74808;SDS011;63338;39.544;2.596;2022-11-11T19:27:57;13.93;;;3.95;;
74808;SDS011;63338;39.544;2.596;2022-11-11T19:30:24;21.80;;;4.50;;
74808;SDS011;63338;39.544;2.596;2022-11-11T19:32:50;17.55;;;4.13;;
74808;SDS011;63338;39.544;2.596;2022-11-11T19:35:19;20.65;;;4.20;;
74808;SDS011;63338;39.544;2.596;2022-11-11T19:37:48;15.95;;;3.88;;
74808;SDS011;63338;39.544;2.596;2022-11-11T19:40:52;15.55;;;3.30;;
74808;SDS011;63338;39.544;2.596;2022-11-11T19:43:19;30.52;;;10.32;;
74808;SDS011;63338;39.544;2.596;2022-11-11T19:48:59;25.92;;;4.20;;
74808;SDS011;63338;39.544;2.596;2022-11-11T19:56:00;18.25;;;3.67;;
74808;SDS011;63338;39.544;2.596;2022-11-11T20:05:21;18.58;;;3.63;;
74808;SDS011;63338;39.544;2.596;2022-11-11T20:07:48;19.20;;;3.78;;
74808;SDS011;63338;39.544;2.596;2022-11-11T20:10:17;17.90;;;3.65;;
74808;SDS011;63338;39.544;2.596;2022-11-11T20:12:50;22.88;;;3.75;;
74808;SDS011;63338;39.544;2.596;2022-11-11T20:15:17;19.45;;;4.03;;
74808;SDS011;63338;39.544;2.596;2022-11-11T20:17:43;19.50;;;3.78;;
74808;SDS011;63338;39.544;2.596;2022-11-11T20:20:09;16.52;;;3.45;;
74808;SDS011;63338;39.544;2.596;2022-11-11T20:22:36;17.88;;;3.67;;
74808;SDS011;63338;39.544;2.596;2022-11-11T20:25:03;20.05;;;3.65;;
74808;SDS011;63338;39.544;2.596;2022-11-11T20:27:29;16.00;;;3.60;;
74808;SDS011;63338;39.544;2.596;2022-11-11T20:30:02;17.85;;;3.10;;
74808;SDS011;63338;39.544;2.596;2022-11-11T20:39:53;24.75;;;4.07;;
74808;SDS011;63338;39.544;2.596;2022-11-11T20:47:08;16.85;;;3.58;;
74808;SDS011;63338;39.544;2.596;2022-11-11T20:53:12;22.27;;;6.72;;
74808;SDS011;63338;39.544;2.596;2022-11-11T20:55:42;19.23;;;5.35;;
74808;SDS011;63338;39.544;2.596;2022-11-11T20:58:17;21.60;;;4.70;;
74808;SDS011;63338;39.544;2.596;2022-11-11T21:22:55;24.73;;;9.07;;
74808;SDS011;63338;39.544;2.596;2022-11-11T21:25:23;23.55;;;6.07;;
74808;SDS011;63338;39.544;2.596;2022-11-11T21:27:54;20.75;;;5.57;;
74808;SDS011;63338;39.544;2.596;2022-11-11T21:45:20;19.20;;;4.65;;
74808;SDS011;63338;39.544;2.596;2022-11-11T21:47:47;16.85;;;4.30;;
74808;SDS011;63338;39.544;2.596;2022-11-11T21:50:26;20.77;;;3.47;;
74808;SDS011;63338;39.544;2.596;2022-11-11T21:58:02;11.85;;;2.97;;
74808;SDS011;63338;39.544;2.596;2022-11-11T22:00:45;16.35;;;2.85;;
74808;SDS011;63338;39.544;2.596;2022-11-11T22:03:34;22.45;;;2.90;;
74808;SDS011;63338;39.544;2.596;2022-11-11T22:06:15;14.18;;;3.10;;
74808;SDS011;63338;39.544;2.596;2022-11-11T22:08:51;15.52;;;3.08;;
74808;SDS011;63338;39.544;2.596;2022-11-11T22:15:03;20.27;;;3.90;;
74808;SDS011;63338;39.544;2.596;2022-11-11T22:17:29;27.60;;;3.53;;
74808;SDS011;63338;39.544;2.596;2022-11-11T22:19:55;19.20;;;3.53;;
74808;SDS011;63338;39.544;2.596;2022-11-11T22:22:33;20.75;;;5.70;;
74808;SDS011;63338;39.544;2.596;2022-11-11T22:25:06;19.40;;;5.75;;
74808;SDS011;63338;39.544;2.596;2022-11-11T22:27:32;17.42;;;3.92;;
74808;SDS011;63338;39.544;2.596;2022-11-11T22:30:11;21.77;;;4.78;;
74808;SDS011;63338;39.544;2.596;2022-11-11T22:33:09;17.45;;;3.35;;
74808;SDS011;63338;39.544;2.596;2022-11-11T22:35:44;17.13;;;4.15;;
74808;SDS011;63338;39.544;2.596;2022-11-11T22:38:25;18.75;;;4.30;;
74808;SDS011;63338;39.544;2.596;2022-11-11T22:40:54;20.50;;;3.00;;
74808;SDS011;63338;39.544;2.596;2022-11-11T22:43:40;17.17;;;3.15;;
74808;SDS011;63338;39.544;2.596;2022-11-11T22:46:11;17.65;;;2.72;;
74808;SDS011;63338;39.544;2.596;2022-11-11T22:48:40;15.18;;;3.22;;
74808;SDS011;63338;39.544;2.596;2022-11-11T22:51:11;15.23;;;3.80;;
74808;SDS011;63338;39.544;2.596;2022-11-11T22:53:39;18.75;;;3.35;;
74808;SDS011;63338;39.544;2.596;2022-11-11T22:56:08;17.48;;;2.90;;
74808;SDS011;63338;39.544;2.596;2022-11-11T22:58:42;15.10;;;2.90;;
74808;SDS011;63338;39.544;2.596;2022-11-11T23:03:42;18.90;;;3.70;;